createdAt,value
2024-04-12T02:14:38.712Z,0.00
2024-04-12T02:15:38.448Z,0.00
2024-04-12T02:16:38.361Z,0.00
2024-04-12T02:17:38.355Z,0.00
2024-04-12T02:18:38.259Z,0.00
2024-04-12T02:19:38.105Z,0.00
2024-04-12T02:20:38.113Z,0.00
2024-04-12T02:21:37.937Z,0.00
2024-04-12T02:22:37.852Z,0.00
2024-04-12T02:23:37.796Z,0.00
2024-04-12T02:24:37.682Z,0.00
2024-04-12T02:25:37.601Z,0.00
2024-04-12T02:26:37.544Z,0.00
2024-04-12T02:27:37.426Z,0.00
2024-04-12T02:28:37.349Z,0.00
2024-04-12T02:29:37.279Z,0.00
2024-04-12T02:30:37.194Z,0.00
2024-04-12T02:31:37.124Z,0.00
2024-04-12T02:32:37.078Z,0.00
2024-04-12T02:33:37.063Z,0.00
2024-04-12T02:34:36.844Z,0.00
2024-04-12T02:35:36.773Z,0.00
2024-04-12T02:36:36.683Z,0.00
2024-04-12T02:37:36.586Z,0.00
2024-04-12T02:38:36.523Z,0.00
2024-04-12T02:39:36.416Z,0.00
2024-04-12T02:40:36.334Z,0.00
2024-04-12T02:41:36.291Z,0.00
2024-04-12T02:42:36.167Z,0.00
2024-04-12T02:43:36.085Z,0.00
2024-04-12T02:44:36.022Z,0.00
2024-04-12T02:45:35.911Z,0.00
2024-04-12T02:46:35.841Z,0.00
2024-04-12T02:47:35.812Z,0.00
2024-04-12T02:48:35.713Z,0.00
2024-04-12T02:49:35.576Z,0.00
2024-04-12T02:50:35.523Z,0.00
2024-04-12T02:51:35.408Z,0.00
2024-04-12T02:52:35.345Z,0.00
2024-04-12T02:53:35.262Z,0.00
2024-04-12T02:54:35.154Z,0.00
2024-04-12T02:55:35.066Z,0.00
2024-04-12T02:56:35.028Z,0.00
2024-04-12T02:57:34.904Z,0.00
2024-04-12T02:58:34.816Z,0.00
2024-04-12T02:59:34.752Z,0.00
2024-04-12T03:00:34.668Z,0.00
2024-04-12T03:01:34.565Z,0.00
2024-04-12T03:02:34.599Z,0.00
2024-04-12T03:03:34.477Z,0.00
2024-04-12T03:04:34.325Z,0.00
2024-04-12T03:05:34.298Z,0.00
2024-04-12T03:06:34.695Z,0.00
2024-04-12T03:07:34.066Z,0.00
2024-04-12T03:08:34.315Z,0.00
2024-04-12T03:09:33.893Z,0.00
2024-04-12T03:10:33.807Z,0.00
2024-04-12T03:11:33.767Z,0.00
2024-04-12T03:12:33.638Z,0.00
2024-04-12T03:13:33.556Z,0.00
2024-04-12T03:14:33.503Z,0.00
2024-04-12T03:15:33.388Z,0.00
2024-04-12T03:16:33.337Z,0.00
2024-04-12T03:17:33.300Z,0.00
2024-04-12T03:18:33.217Z,0.00
2024-04-12T03:19:33.092Z,0.00
2024-04-12T03:20:32.984Z,0.00
2024-04-12T03:21:32.879Z,0.00
2024-04-12T03:22:32.793Z,0.00
2024-04-12T03:23:32.748Z,0.00
2024-04-12T03:24:32.629Z,0.00
2024-04-12T03:25:32.544Z,0.00
2024-04-12T03:26:32.580Z,0.00
2024-04-12T03:27:32.373Z,0.00
2024-04-12T03:28:32.294Z,0.00
2024-04-12T03:29:32.219Z,0.00
2024-04-12T03:30:32.128Z,0.00
2024-04-12T03:31:32.032Z,0.00
2024-04-12T03:32:31.990Z,0.00
2024-04-12T03:33:31.935Z,0.00
2024-04-12T03:34:31.793Z,0.00
2024-04-12T03:35:31.706Z,0.00
2024-04-12T03:36:31.629Z,0.00
2024-04-12T03:37:31.543Z,0.00
2024-04-12T03:38:31.447Z,0.00
2024-04-12T03:39:31.376Z,0.00
2024-04-12T03:40:31.283Z,0.00
2024-04-12T03:41:31.197Z,0.00
2024-04-12T03:42:31.118Z,0.00
2024-04-12T03:43:31.038Z,0.00
2024-04-12T03:44:30.948Z,0.00
2024-04-12T03:45:30.856Z,0.00
2024-04-12T03:46:30.776Z,0.00
2024-04-12T03:47:30.741Z,0.00
2024-04-12T03:48:30.727Z,0.00
2024-04-12T03:49:30.527Z,0.00
2024-04-12T03:50:30.441Z,0.00
2024-04-12T03:51:30.362Z,0.00
2024-04-12T03:52:30.271Z,0.00
2024-04-12T03:53:30.190Z,0.00
2024-04-12T03:54:30.100Z,0.00
2024-04-12T03:55:30.024Z,0.00
2024-04-12T03:56:29.933Z,0.00
2024-04-12T03:57:29.846Z,0.00
2024-04-12T03:58:29.764Z,0.00
2024-04-12T03:59:29.682Z,0.00
2024-04-12T04:00:29.617Z,0.00
2024-04-12T04:01:29.526Z,0.00
2024-04-12T04:02:29.450Z,0.00
2024-04-12T04:03:29.386Z,0.00
2024-04-12T04:04:29.295Z,0.00
2024-04-12T04:05:29.172Z,0.00
2024-04-12T04:06:29.097Z,0.00
2024-04-12T04:07:29.005Z,0.00
2024-04-12T04:08:28.923Z,0.00
2024-04-12T04:09:28.849Z,0.00
2024-04-12T04:10:28.786Z,0.00
2024-04-12T04:11:28.666Z,0.00
2024-04-12T04:12:28.588Z,0.00
2024-04-12T04:13:28.524Z,0.00
2024-04-12T04:14:28.420Z,0.00
2024-04-12T04:15:28.354Z,0.00
2024-04-12T04:16:28.246Z,4.00
2024-04-12T04:17:28.245Z,4.00
2024-04-12T04:18:28.264Z,4.00
2024-04-12T04:19:28.000Z,4.00
2024-04-12T04:20:27.909Z,4.00
2024-04-12T04:21:27.824Z,4.00
2024-04-12T04:22:27.755Z,4.00
2024-04-12T04:23:27.667Z,4.00
2024-04-12T04:24:27.581Z,8.00
2024-04-12T04:25:27.486Z,8.00
2024-04-12T04:26:27.401Z,8.00
2024-04-12T04:27:27.319Z,8.00
2024-04-12T04:28:27.238Z,12.00
2024-04-12T04:29:27.146Z,12.00
2024-04-12T04:30:27.175Z,12.00
2024-04-12T04:31:27.000Z,16.00
2024-04-12T04:32:26.936Z,16.00
2024-04-12T04:33:26.910Z,16.00
2024-04-12T04:34:26.741Z,16.00
2024-04-12T04:35:26.647Z,20.00
2024-04-12T04:36:26.563Z,24.00
2024-04-12T04:37:33.042Z,24.00
2024-04-12T04:38:26.389Z,24.00
2024-04-12T04:39:26.303Z,28.00
2024-04-12T04:40:26.224Z,28.00
2024-04-12T04:41:27.669Z,32.00
2024-04-12T04:42:26.058Z,36.00
2024-04-12T04:43:25.968Z,36.00
2024-04-12T04:44:25.883Z,40.00
2024-04-12T04:45:25.809Z,44.00
2024-04-12T04:46:25.731Z,44.00
2024-04-12T04:47:25.664Z,52.00
2024-04-12T04:48:25.654Z,52.00
2024-04-12T04:49:25.549Z,56.00
2024-04-12T04:50:25.379Z,56.00
2024-04-12T04:51:25.292Z,64.00
2024-04-12T04:52:25.203Z,64.00
2024-04-12T04:53:25.122Z,72.00
2024-04-12T04:54:25.045Z,72.00
2024-04-12T04:55:24.965Z,72.00
2024-04-12T04:56:24.878Z,76.00
2024-04-12T04:57:24.783Z,84.00
2024-04-12T04:58:24.699Z,88.00
2024-04-12T04:59:24.615Z,92.00
2024-04-12T05:00:25.053Z,96.00
2024-04-12T05:01:24.446Z,104.00
2024-04-12T05:02:24.368Z,104.00
2024-04-12T05:03:24.432Z,104.00
2024-04-12T05:04:24.236Z,108.00
2024-04-12T05:05:26.035Z,116.00
2024-04-12T05:06:24.028Z,120.00
2024-04-12T05:07:23.951Z,124.00
2024-04-12T05:08:23.853Z,124.00
2024-04-12T05:09:23.772Z,132.00
2024-04-12T05:10:23.708Z,136.00
2024-04-12T05:11:23.600Z,140.00
2024-04-12T05:12:23.580Z,144.00
2024-04-12T05:13:23.432Z,148.00
2024-04-12T05:14:23.345Z,148.00
2024-04-12T05:15:23.278Z,152.00
2024-04-12T05:16:23.247Z,160.00
2024-04-12T05:17:23.257Z,160.00
2024-04-12T05:18:23.123Z,168.00
2024-04-12T05:19:22.936Z,168.00
2024-04-12T05:20:22.840Z,168.00
2024-04-12T05:21:22.785Z,168.00
2024-04-12T05:22:22.670Z,168.00
2024-04-12T05:23:22.729Z,172.00
2024-04-12T05:24:22.512Z,180.00
2024-04-12T05:25:22.420Z,180.00
2024-04-12T05:26:22.463Z,180.00
2024-04-12T05:27:22.274Z,184.00
2024-04-12T05:28:22.182Z,192.00
2024-04-12T05:29:22.085Z,192.00
2024-04-12T05:30:21.996Z,196.00
2024-04-12T05:31:21.944Z,196.00
2024-04-12T05:32:21.871Z,196.00
2024-04-12T05:33:21.869Z,204.00
2024-04-12T05:34:21.662Z,204.00
2024-04-12T05:35:21.577Z,208.00
2024-04-12T05:36:21.512Z,212.00
2024-04-12T05:37:21.404Z,220.00
2024-04-12T05:38:21.324Z,224.00
2024-04-12T05:39:21.257Z,228.00
2024-04-12T05:40:21.152Z,232.00
2024-04-12T05:41:21.075Z,236.00
2024-04-12T05:42:20.978Z,240.00
2024-04-12T05:43:20.896Z,244.00
2024-04-12T05:44:20.812Z,248.00
2024-04-12T05:45:20.762Z,256.00
2024-04-12T05:46:20.641Z,260.00
2024-04-12T05:47:20.643Z,268.00
2024-04-12T05:48:20.522Z,276.00
2024-04-12T05:49:20.391Z,280.00
2024-04-12T05:50:20.307Z,284.00
2024-04-12T05:51:22.148Z,288.00
2024-04-12T05:52:20.137Z,288.00
2024-04-12T05:53:20.053Z,292.00
2024-04-12T05:54:19.967Z,300.00
2024-04-12T05:55:19.948Z,304.00
2024-04-12T05:56:19.878Z,304.00
2024-04-12T05:57:19.752Z,308.00
2024-04-12T05:58:19.631Z,316.00
2024-04-12T05:59:19.554Z,320.00
2024-04-12T06:00:19.509Z,324.00
2024-04-12T06:01:19.404Z,324.00
2024-04-12T06:02:19.327Z,324.00
2024-04-12T06:03:19.396Z,324.00
2024-04-12T06:04:19.174Z,320.00
2024-04-12T06:05:19.041Z,316.00
2024-04-12T06:06:19.000Z,312.00
2024-04-12T06:07:18.884Z,308.00
2024-04-12T06:08:18.796Z,312.00
2024-04-12T06:09:20.125Z,316.00
2024-04-12T06:10:18.622Z,312.00
2024-04-12T06:11:18.900Z,316.00
2024-04-12T06:12:18.626Z,316.00
2024-04-12T06:13:18.368Z,324.00
2024-04-12T06:14:18.288Z,320.00
2024-04-12T06:15:18.256Z,312.00
2024-04-12T06:16:18.233Z,312.00
2024-04-12T06:17:18.035Z,308.00
2024-04-12T06:18:18.107Z,312.00
2024-04-12T06:19:17.869Z,308.00
2024-04-12T06:20:17.782Z,304.00
2024-04-12T06:21:17.793Z,304.00
2024-04-12T06:22:17.612Z,304.00
2024-04-12T06:23:17.532Z,300.00
2024-04-12T06:24:17.663Z,308.00
2024-04-12T06:25:17.389Z,312.00
2024-04-12T06:26:17.298Z,320.00
2024-04-12T06:27:17.227Z,328.00
2024-04-12T06:28:17.119Z,340.00
2024-04-12T06:29:22.557Z,356.00
2024-04-12T06:30:17.025Z,360.00
2024-04-12T06:31:16.860Z,364.00
2024-04-12T06:32:16.794Z,376.00
2024-04-12T06:33:16.809Z,384.00
2024-04-12T06:34:16.632Z,396.00
2024-04-12T06:35:16.528Z,404.00
2024-04-12T06:36:16.480Z,424.00
2024-04-12T06:37:16.363Z,444.00
2024-04-12T06:38:16.275Z,452.00
2024-04-12T06:39:16.235Z,464.00
2024-04-12T06:40:16.110Z,452.00
2024-04-12T06:41:16.031Z,452.00
2024-04-12T06:42:16.048Z,472.00
2024-04-12T06:43:16.648Z,484.00
2024-04-12T06:44:15.771Z,504.00
2024-04-12T06:45:15.750Z,512.00
2024-04-12T06:46:15.834Z,516.00
2024-04-12T06:47:15.558Z,528.00
2024-04-12T06:48:15.483Z,532.00
2024-04-12T06:49:15.354Z,524.00
2024-04-12T06:50:15.275Z,540.00
2024-04-12T06:51:15.438Z,556.00
2024-04-12T06:52:15.104Z,572.00
2024-04-12T06:53:15.027Z,588.00
2024-04-12T06:54:15.054Z,600.00
2024-04-12T06:55:14.860Z,600.00
2024-04-12T06:56:14.782Z,620.00
2024-04-12T06:57:14.695Z,632.00
2024-04-12T06:58:14.606Z,644.00
2024-04-12T06:59:14.523Z,672.00
2024-04-12T07:00:14.510Z,668.00
2024-04-12T07:01:14.444Z,680.00
2024-04-12T07:02:14.285Z,672.00
2024-04-12T07:03:14.317Z,640.00
2024-04-12T07:04:14.124Z,604.00
2024-04-12T07:05:14.050Z,608.00
2024-04-12T07:06:13.977Z,624.00
2024-04-12T07:07:13.854Z,624.00
2024-04-12T07:08:13.779Z,656.00
2024-04-12T07:09:13.726Z,644.00
2024-04-12T07:10:13.616Z,676.00
2024-04-12T07:11:13.555Z,648.00
2024-04-12T07:12:13.481Z,660.00
2024-04-12T07:13:13.357Z,648.00
2024-04-12T07:14:13.287Z,648.00
2024-04-12T07:15:13.255Z,672.00
2024-04-12T07:16:13.114Z,760.00
2024-04-12T07:17:13.070Z,800.00
2024-04-12T07:18:12.999Z,864.00
2024-04-12T07:19:12.861Z,876.00
2024-04-12T07:20:12.779Z,952.00
2024-04-12T07:21:12.779Z,960.00
2024-04-12T07:22:12.613Z,1056.00
2024-04-12T07:23:12.542Z,1148.00
2024-04-12T07:24:12.503Z,1204.00
2024-04-12T07:25:12.369Z,1316.00
2024-04-12T07:26:12.284Z,1368.00
2024-04-12T07:27:12.250Z,1420.00
2024-04-12T07:28:12.117Z,1404.00
2024-04-12T07:29:12.039Z,1232.00
2024-04-12T07:30:12.049Z,1184.00
2024-04-12T07:31:11.872Z,1260.00
2024-04-12T07:32:14.820Z,1248.00
2024-04-12T07:33:11.771Z,1228.00
2024-04-12T07:34:11.683Z,1216.00
2024-04-12T07:35:11.545Z,1020.00
2024-04-12T07:36:11.536Z,896.00
2024-04-12T07:37:11.380Z,968.00
2024-04-12T07:38:11.297Z,1100.00
2024-04-12T07:39:11.400Z,1412.00
2024-04-12T07:40:11.134Z,1544.00
2024-04-12T07:41:11.054Z,1620.00
2024-04-12T07:42:11.057Z,1580.00
2024-04-12T07:43:11.979Z,1600.00
2024-04-12T07:44:10.809Z,1576.00
2024-04-12T07:45:10.793Z,1684.00
2024-04-12T07:46:10.652Z,1476.00
2024-04-12T07:47:10.595Z,1404.00
2024-04-12T07:48:10.557Z,1652.00
2024-04-12T07:49:10.414Z,1508.00
2024-04-12T07:50:10.317Z,1860.00
2024-04-12T07:51:10.252Z,1840.00
2024-04-12T07:52:10.165Z,1840.00
2024-04-12T07:53:10.080Z,1836.00
2024-04-12T07:54:10.044Z,1964.00
2024-04-12T07:55:09.917Z,2068.00
2024-04-12T07:56:10.682Z,2088.00
2024-04-12T07:57:09.931Z,2076.00
2024-04-12T07:58:09.673Z,2280.00
2024-04-12T07:59:09.594Z,2360.00
2024-04-12T08:00:09.586Z,2260.00
2024-04-12T08:01:09.454Z,2412.00
2024-04-12T08:02:11.253Z,2228.00
2024-04-12T08:03:09.341Z,2312.00
2024-04-12T08:04:09.235Z,2372.00
2024-04-12T08:05:09.116Z,2336.00
2024-04-12T08:06:09.120Z,2252.00
2024-04-12T08:07:08.947Z,2184.00
2024-04-12T08:08:08.870Z,2168.00
2024-04-12T08:09:08.904Z,2232.00
2024-04-12T08:10:08.705Z,2292.00
2024-04-12T08:11:08.650Z,2316.00
2024-04-12T08:12:08.616Z,2392.00
2024-04-12T08:13:08.477Z,2588.00
2024-04-12T08:14:08.391Z,2608.00
2024-04-12T08:15:08.836Z,2636.00
2024-04-12T08:16:08.224Z,2688.00
2024-04-12T08:17:08.189Z,2648.00
2024-04-12T08:18:08.182Z,2624.00
2024-04-12T08:19:08.068Z,2648.00
2024-04-12T08:20:07.907Z,2652.00
2024-04-12T08:21:10.273Z,2728.00
2024-04-12T08:22:07.757Z,2684.00
2024-04-12T08:23:07.674Z,2552.00
2024-04-12T08:24:07.626Z,2816.00
2024-04-12T08:25:07.519Z,2768.00
2024-04-12T08:26:07.433Z,2788.00
2024-04-12T08:27:07.436Z,2744.00
2024-04-12T08:28:07.276Z,2724.00
2024-04-12T08:29:07.198Z,2684.00
2024-04-12T08:30:07.216Z,2808.00
2024-04-12T08:31:07.339Z,2700.00
2024-04-12T08:32:06.982Z,2648.00
2024-04-12T08:33:07.025Z,2852.00
2024-04-12T08:34:06.911Z,2908.00
2024-04-12T08:35:06.740Z,2888.00
2024-04-12T08:36:06.713Z,2832.00
2024-04-12T08:37:06.566Z,2820.00
2024-04-12T08:38:06.497Z,2812.00
2024-04-12T08:39:06.501Z,2824.00
2024-04-12T08:40:06.349Z,2816.00
2024-04-12T08:41:06.251Z,2792.00
2024-04-12T08:42:06.204Z,2804.00
2024-04-12T08:43:06.104Z,2804.00
2024-04-12T08:44:06.017Z,2836.00
2024-04-12T08:45:06.024Z,2844.00
2024-04-12T08:46:05.862Z,2836.00
2024-04-12T08:47:05.854Z,2784.00
2024-04-12T08:48:05.942Z,2764.00
2024-04-12T08:49:07.444Z,2804.00
2024-04-12T08:50:05.551Z,2800.00
2024-04-12T08:51:05.621Z,2812.00
2024-04-12T08:52:05.395Z,2868.00
2024-04-12T08:53:05.319Z,2856.00
2024-04-12T08:54:05.463Z,2836.00
2024-04-12T08:56:05.086Z,2804.00
2024-04-12T08:57:05.035Z,2792.00
2024-04-12T08:58:04.926Z,2760.00
2024-04-12T08:59:04.847Z,2740.00
2024-04-12T09:00:04.844Z,2708.00
2024-04-12T09:01:04.718Z,2680.00
2024-04-12T09:02:04.619Z,2680.00
2024-04-12T09:03:05.009Z,2660.00
2024-04-12T09:04:04.718Z,2624.00
2024-04-12T09:05:04.416Z,2624.00
2024-04-12T09:06:04.387Z,2608.00
2024-04-12T09:07:04.228Z,2608.00
2024-04-12T09:08:06.775Z,2592.00
2024-04-12T09:09:04.205Z,2576.00
2024-04-12T09:10:04.014Z,2568.00
2024-04-12T09:11:05.606Z,2516.00
2024-04-12T09:12:03.914Z,2504.00
2024-04-12T09:13:03.809Z,2476.00
2024-04-12T09:14:03.697Z,2580.00
2024-04-12T09:15:03.673Z,2556.00
2024-04-12T09:16:03.568Z,2584.00
2024-04-12T09:17:03.571Z,2580.00
2024-04-12T09:18:03.574Z,2540.00
2024-04-12T09:19:03.356Z,2568.00
2024-04-12T09:20:03.235Z,2580.00
2024-04-12T09:21:03.805Z,2568.00
2024-04-12T09:22:03.082Z,2572.00
2024-04-12T09:23:03.019Z,2560.00
2024-04-12T09:24:02.938Z,2556.00
2024-04-12T09:25:02.871Z,2568.00
2024-04-12T09:26:05.577Z,2568.00
2024-04-12T09:27:02.738Z,2560.00
2024-04-12T09:28:02.640Z,2608.00
2024-04-12T09:29:02.539Z,2628.00
2024-04-12T09:30:02.515Z,2636.00
2024-04-12T09:31:02.388Z,2636.00
2024-04-12T09:32:02.316Z,2624.00
2024-04-12T09:33:02.367Z,2608.00
2024-04-12T09:34:02.316Z,2624.00
2024-04-12T09:35:02.112Z,2632.00
2024-04-12T09:36:02.033Z,2640.00
2024-04-12T09:37:01.922Z,2648.00
2024-04-12T09:38:01.851Z,2636.00
2024-04-12T09:39:01.848Z,2644.00
2024-04-12T09:40:01.764Z,2648.00
2024-04-12T09:41:01.620Z,2636.00
2024-04-12T09:42:01.630Z,2660.00
2024-04-12T09:43:01.522Z,2644.00
2024-04-12T09:44:01.413Z,2652.00
2024-04-12T09:45:01.482Z,2676.00
2024-04-12T09:46:01.234Z,2640.00
2024-04-12T09:47:01.196Z,2648.00
2024-04-12T09:48:01.248Z,2644.00
2024-04-12T09:49:01.175Z,2656.00
2024-04-12T09:50:00.944Z,2652.00
2024-04-12T09:51:00.918Z,2652.00
2024-04-12T09:52:00.781Z,2664.00
2024-04-12T09:53:00.723Z,2680.00
2024-04-12T09:54:00.685Z,2684.00
2024-04-12T09:55:00.552Z,2688.00
2024-04-12T09:56:00.476Z,2684.00
2024-04-12T09:57:00.473Z,2676.00
2024-04-12T09:58:00.325Z,2684.00
2024-04-12T09:59:00.249Z,2684.00
2024-04-12T10:00:00.264Z,2684.00
2024-04-12T10:01:00.167Z,2688.00
2024-04-12T10:02:00.038Z,2656.00
2024-04-12T10:03:00.052Z,2708.00
2024-04-12T10:03:59.948Z,2704.00
2024-04-12T10:04:59.796Z,2700.00
2024-04-12T10:05:59.759Z,2696.00
2024-04-12T10:06:59.654Z,2724.00
2024-04-12T10:07:59.580Z,2740.00
2024-04-12T10:08:59.554Z,2724.00
2024-04-12T10:09:59.421Z,2744.00
2024-04-12T10:10:59.384Z,2744.00
2024-04-12T10:11:59.384Z,2720.00
2024-04-12T10:12:59.192Z,2724.00
2024-04-12T10:13:59.125Z,2720.00
2024-04-12T10:14:59.063Z,2728.00
2024-04-12T10:15:58.975Z,2744.00
2024-04-12T10:16:58.907Z,2752.00
2024-04-12T10:17:58.935Z,2720.00
2024-04-12T10:18:58.815Z,2732.00
2024-04-12T10:19:58.685Z,2736.00
2024-04-12T10:20:58.640Z,2724.00
2024-04-12T10:21:58.520Z,2680.00
2024-04-12T10:22:58.444Z,2672.00
2024-04-12T10:23:58.382Z,2636.00
2024-04-12T10:24:58.294Z,2660.00
2024-04-12T10:25:58.219Z,2720.00
2024-04-12T10:26:58.178Z,2712.00
2024-04-12T10:27:58.066Z,2728.00
2024-04-12T10:28:58.022Z,2724.00
2024-04-12T10:29:57.956Z,2736.00
2024-04-12T10:30:57.842Z,2728.00
2024-04-12T10:31:57.787Z,2748.00
2024-04-12T10:32:57.851Z,2712.00
2024-04-12T10:33:57.705Z,2756.00
2024-04-12T10:34:57.538Z,2724.00
2024-04-12T10:35:57.539Z,2764.00
2024-04-12T10:36:57.402Z,2756.00
2024-04-12T10:37:57.321Z,2644.00
2024-04-12T10:38:57.241Z,2772.00
2024-04-12T10:39:57.186Z,2684.00
2024-04-12T10:40:57.091Z,2672.00
2024-04-12T10:41:57.054Z,2780.00
2024-04-12T10:42:56.940Z,2712.00
2024-04-12T10:43:56.876Z,2724.00
2024-04-12T10:44:56.892Z,2656.00
2024-04-12T10:45:56.731Z,2688.00
2024-04-12T10:46:56.644Z,2704.00
2024-04-12T10:47:56.672Z,2600.00
2024-04-12T10:48:56.492Z,2628.00
2024-04-12T10:49:56.419Z,2536.00
2024-04-12T10:50:56.377Z,2364.00
2024-04-12T10:51:56.271Z,2540.00
2024-04-12T10:52:56.193Z,2648.00
2024-04-12T10:53:56.188Z,2608.00
2024-04-12T10:54:56.043Z,2628.00
2024-04-12T10:55:55.979Z,2580.00
2024-04-12T10:56:59.290Z,2476.00
2024-04-12T10:57:55.831Z,2452.00
2024-04-12T10:58:55.749Z,2312.00
2024-04-12T10:59:55.740Z,2300.00
2024-04-12T11:00:55.638Z,2316.00
2024-04-12T11:01:55.535Z,2184.00
2024-04-12T11:03:02.729Z,2372.00
2024-04-12T11:03:55.445Z,2476.00
2024-04-12T11:04:56.608Z,2568.00
2024-04-12T11:05:55.319Z,2536.00
2024-04-12T11:06:55.169Z,2180.00
2024-04-12T11:07:55.080Z,2176.00
2024-04-12T11:08:55.024Z,2524.00
2024-04-12T11:09:54.931Z,2484.00
2024-04-12T11:10:54.926Z,2472.00
2024-04-12T11:11:54.836Z,2636.00
2024-04-12T11:12:54.710Z,2672.00
2024-04-12T11:13:54.644Z,2672.00
2024-04-12T11:14:54.576Z,2576.00
2024-04-12T11:15:54.492Z,2604.00
2024-04-12T11:16:54.412Z,2600.00
2024-04-12T11:17:54.494Z,2640.00
2024-04-12T11:18:54.336Z,2388.00
2024-04-12T11:19:54.202Z,2088.00
2024-04-12T11:20:54.162Z,2148.00
2024-04-12T11:21:54.044Z,2004.00
2024-04-12T11:22:53.969Z,2156.00
2024-04-12T11:23:53.917Z,2096.00
2024-04-12T11:24:53.821Z,2472.00
2024-04-12T11:25:53.752Z,2500.00
2024-04-12T11:26:53.713Z,2428.00
2024-04-12T11:27:53.602Z,2432.00
2024-04-12T11:28:53.524Z,2464.00
2024-04-12T11:29:53.487Z,2252.00
2024-04-12T11:30:53.403Z,2220.00
2024-04-12T11:31:53.341Z,2372.00
2024-04-12T11:32:53.279Z,2428.00
2024-04-12T11:33:57.326Z,2424.00
2024-04-12T11:34:53.422Z,2412.00
2024-04-12T11:35:53.042Z,2280.00
2024-04-12T11:36:52.936Z,2308.00
2024-04-12T11:37:52.862Z,2308.00
2024-04-12T11:38:52.850Z,2312.00
2024-04-12T11:39:52.722Z,2280.00
2024-04-12T11:40:52.636Z,2332.00
2024-04-12T11:41:52.607Z,2364.00
2024-04-12T11:42:52.499Z,2288.00
2024-04-12T11:43:52.433Z,2320.00
2024-04-12T11:44:52.362Z,2420.00
2024-04-12T11:45:52.269Z,2372.00
2024-04-12T11:46:52.210Z,2240.00
2024-04-12T11:47:52.518Z,2232.00
2024-04-12T11:48:52.105Z,2128.00
2024-04-12T11:49:51.992Z,2064.00
2024-04-12T11:50:51.919Z,1896.00
2024-04-12T11:51:51.830Z,1828.00
2024-04-12T11:52:51.756Z,1832.00
2024-04-12T11:53:51.703Z,1792.00
2024-04-12T11:54:51.609Z,1648.00
2024-04-12T11:55:51.539Z,1648.00
2024-04-12T11:56:51.491Z,1592.00
2024-04-12T11:57:51.406Z,1680.00
2024-04-12T11:58:51.310Z,1644.00
2024-04-12T11:59:51.286Z,1684.00
2024-04-12T12:00:51.180Z,1720.00
2024-04-12T12:01:51.111Z,1728.00
2024-04-12T12:02:51.058Z,1728.00
2024-04-12T12:03:50.979Z,1628.00
2024-04-12T12:04:50.867Z,2128.00
2024-04-12T12:05:50.847Z,2192.00
2024-04-12T12:06:50.730Z,2172.00
2024-04-12T12:07:50.684Z,2220.00
2024-04-12T12:08:50.588Z,2180.00
2024-04-12T12:09:50.510Z,2156.00
2024-04-12T12:10:50.427Z,2340.00
2024-04-12T12:11:50.630Z,2304.00
2024-04-12T12:12:50.311Z,2164.00
2024-04-12T12:13:50.211Z,2076.00
2024-04-12T12:14:50.171Z,2104.00
2024-04-12T12:15:50.069Z,2192.00
2024-04-12T12:16:50.025Z,2108.00
2024-04-12T12:17:49.961Z,2140.00
2024-04-12T12:18:49.942Z,2312.00
2024-04-12T12:19:49.771Z,2372.00
2024-04-12T12:20:49.705Z,2232.00
2024-04-12T12:21:49.631Z,2208.00
2024-04-12T12:22:49.551Z,2244.00
2024-04-12T12:23:49.498Z,2232.00
2024-04-12T12:24:49.606Z,2212.00
2024-04-12T12:25:49.329Z,2164.00
2024-04-12T12:26:49.285Z,2136.00
2024-04-12T12:27:49.186Z,2148.00
2024-04-12T12:28:49.107Z,2232.00
2024-04-12T12:29:49.040Z,2316.00
2024-04-12T12:30:48.956Z,2152.00
2024-04-12T12:31:48.891Z,2332.00
2024-04-12T12:32:48.897Z,2312.00
2024-04-12T12:33:48.875Z,2184.00
2024-04-12T12:34:48.732Z,2336.00
2024-04-12T12:35:48.660Z,2304.00
2024-04-12T12:36:48.520Z,2064.00
2024-04-12T12:37:48.440Z,2132.00
2024-04-12T12:38:48.392Z,2028.00
2024-04-12T12:39:48.384Z,2204.00
2024-04-12T12:40:48.222Z,2292.00
2024-04-12T12:41:48.198Z,2172.00
2024-04-12T12:42:48.100Z,2164.00
2024-04-12T12:43:48.008Z,2148.00
2024-04-12T12:44:47.945Z,2184.00
2024-04-12T12:45:47.857Z,2332.00
2024-04-12T12:46:47.785Z,2308.00
2024-04-12T12:47:47.779Z,2212.00
2024-04-12T12:48:47.715Z,2296.00
2024-04-12T12:49:47.649Z,2296.00
2024-04-12T12:50:47.550Z,2352.00
2024-04-12T12:51:47.422Z,2336.00
2024-04-12T12:52:47.966Z,2232.00
2024-04-12T12:53:47.313Z,2152.00
2024-04-12T12:54:47.197Z,2128.00
2024-04-12T12:55:47.132Z,2136.00
2024-04-12T12:56:47.068Z,2276.00
2024-04-12T12:57:47.002Z,2240.00
2024-04-12T12:58:46.905Z,2328.00
2024-04-12T12:59:46.984Z,2372.00
2024-04-12T13:00:46.944Z,2416.00
2024-04-12T13:01:46.687Z,2220.00
2024-04-12T13:02:46.642Z,1888.00
2024-04-12T13:03:46.582Z,1740.00
2024-04-12T13:04:46.570Z,1388.00
2024-04-12T13:05:46.423Z,2052.00
2024-04-12T13:06:46.330Z,2068.00
2024-04-12T13:07:46.254Z,2204.00
2024-04-12T13:08:46.198Z,2264.00
2024-04-12T13:09:46.118Z,2264.00
2024-04-12T13:10:46.049Z,2064.00
2024-04-12T13:11:46.004Z,2188.00
2024-04-12T13:12:45.890Z,1764.00
2024-04-12T13:13:45.819Z,1788.00
2024-04-12T13:14:45.814Z,1896.00
2024-04-12T13:15:45.678Z,2148.00
2024-04-12T13:16:45.603Z,2204.00
2024-04-12T13:17:45.619Z,2184.00
2024-04-12T13:18:45.688Z,2248.00
2024-04-12T13:19:45.383Z,2136.00
2024-04-12T13:20:45.316Z,2124.00
2024-04-12T13:21:45.236Z,2124.00
2024-04-12T13:22:45.165Z,2152.00
2024-04-12T13:23:45.103Z,2160.00
2024-04-12T13:24:45.059Z,2004.00
2024-04-12T13:25:44.951Z,2072.00
2024-04-12T13:26:44.955Z,2188.00
2024-04-12T13:27:44.800Z,2164.00
2024-04-12T13:28:44.730Z,2148.00
2024-04-12T13:29:44.676Z,2108.00
2024-04-12T13:30:44.585Z,2140.00
2024-04-12T13:31:44.523Z,2072.00
2024-04-12T13:32:44.899Z,2056.00
2024-04-12T13:33:44.408Z,2124.00
2024-04-12T13:34:44.295Z,2152.00
2024-04-12T13:35:44.233Z,2088.00
2024-04-12T13:36:44.153Z,2152.00
2024-04-12T13:37:44.075Z,2120.00
2024-04-12T13:38:44.024Z,2068.00
2024-04-12T13:39:43.940Z,2028.00
2024-04-12T13:40:43.885Z,1996.00
2024-04-12T13:41:43.809Z,1892.00
2024-04-12T13:42:43.715Z,1968.00
2024-04-12T13:43:43.644Z,1852.00
2024-04-12T13:44:43.576Z,1916.00
2024-04-12T13:45:43.500Z,1988.00
2024-04-12T13:46:45.203Z,1916.00
2024-04-12T13:47:43.539Z,1848.00
2024-04-12T13:48:43.331Z,1936.00
2024-04-12T13:49:43.215Z,1952.00
2024-04-12T13:50:43.212Z,1704.00
2024-04-12T13:51:43.070Z,1800.00
2024-04-12T13:52:42.995Z,1884.00
2024-04-12T13:53:42.930Z,2016.00
2024-04-12T13:54:42.859Z,1972.00
2024-04-12T13:55:42.772Z,1924.00
2024-04-12T13:56:42.713Z,2064.00
2024-04-12T13:57:42.630Z,2132.00
2024-04-12T13:58:42.555Z,2004.00
2024-04-12T13:59:42.539Z,1848.00
2024-04-12T14:00:42.443Z,1800.00
2024-04-12T14:01:42.339Z,1852.00
2024-04-12T14:02:42.375Z,1844.00
2024-04-12T14:03:42.269Z,1740.00
2024-04-12T14:04:42.119Z,1764.00
2024-04-12T14:05:42.083Z,1724.00
2024-04-12T14:06:41.973Z,1760.00
2024-04-12T14:07:41.906Z,1796.00
2024-04-12T14:08:41.850Z,1724.00
2024-04-12T14:09:41.760Z,1840.00
2024-04-12T14:10:41.727Z,1816.00
2024-04-12T14:11:41.666Z,1800.00
2024-04-12T14:12:41.543Z,1708.00
2024-04-12T14:13:41.471Z,1896.00
2024-04-12T14:14:41.443Z,1872.00
2024-04-12T14:15:41.389Z,1944.00
2024-04-12T14:16:41.275Z,2100.00
2024-04-12T14:17:41.238Z,2084.00
2024-04-12T14:18:41.185Z,1840.00
2024-04-12T14:19:41.032Z,1752.00
2024-04-12T14:20:41.000Z,1576.00
2024-04-12T14:21:40.888Z,1628.00
2024-04-12T14:22:40.812Z,1728.00
2024-04-12T14:23:40.773Z,1796.00
2024-04-12T14:24:40.674Z,1932.00
2024-04-12T14:25:40.594Z,1924.00
2024-04-12T14:26:40.533Z,1620.00
2024-04-12T14:27:40.449Z,1532.00
2024-04-12T14:28:40.378Z,1600.00
2024-04-12T14:29:40.309Z,1544.00
2024-04-12T14:30:40.238Z,1464.00
2024-04-12T14:31:40.164Z,1440.00
2024-04-12T14:32:40.119Z,1500.00
2024-04-12T14:33:40.587Z,1552.00
2024-04-12T14:34:39.944Z,1560.00
2024-04-12T14:35:39.898Z,1772.00
2024-04-12T14:36:39.796Z,1632.00
2024-04-12T14:37:39.728Z,1852.00
2024-04-12T14:38:41.524Z,1956.00